createdAt,value
2017-02-12T00:00:01.264Z,-0.8
2017-02-12T00:01:01.262Z,-0.79
2017-02-12T00:02:01.294Z,-0.82
2017-02-12T00:03:01.285Z,-0.79
2017-02-12T00:04:01.301Z,-0.79
2017-02-12T00:05:01.323Z,-0.85
2017-02-12T00:06:01.344Z,-0.7
2017-02-12T00:07:15.859Z,-0.64
2017-02-12T00:08:01.338Z,-0.76
2017-02-12T00:09:01.368Z,-0.78
2017-02-12T00:10:01.371Z,-0.83
2017-02-12T00:11:01.400Z,-0.95
2017-02-12T00:12:01.410Z,-0.91
2017-02-12T00:13:01.425Z,-0.89
2017-02-12T00:14:01.437Z,-0.83
2017-02-12T00:15:01.451Z,-0.67
2017-02-12T00:16:01.446Z,-0.67
2017-02-12T00:17:01.473Z,-0.7
2017-02-12T00:18:01.470Z,-0.82
2017-02-12T00:19:01.493Z,-0.76
2017-02-12T00:20:01.503Z,-0.7
2017-02-12T00:21:01.530Z,-0.78
2017-02-12T00:22:01.515Z,-0.7
2017-02-12T00:23:16.067Z,-0.85
2017-02-12T00:24:01.561Z,-0.82
2017-02-12T00:25:01.566Z,-0.85
2017-02-12T00:26:01.566Z,-0.78
2017-02-12T00:27:01.203Z,-0.91
2017-02-12T00:28:01.614Z,-0.91
2017-02-12T00:29:01.620Z,-0.8
2017-02-12T00:30:01.635Z,-0.91
2017-02-12T00:31:01.637Z,-0.94
2017-02-12T00:32:01.673Z,-0.82
2017-02-12T00:33:01.669Z,-0.8
2017-02-12T00:34:01.685Z,-0.83
2017-02-12T00:35:01.695Z,-0.82
2017-02-12T00:36:01.715Z,-0.61
2017-02-12T00:37:01.722Z,-0.64
2017-02-12T00:38:16.239Z,-0.72
2017-02-12T00:39:01.759Z,-0.64
2017-02-12T00:40:01.759Z,-0.61
2017-02-12T00:41:01.764Z,-0.69
2017-02-12T00:42:01.794Z,-0.72
2017-02-12T00:43:01.788Z,-0.76
2017-02-12T00:44:01.801Z,-0.82
2017-02-12T00:45:01.820Z,-0.82
2017-02-12T00:46:01.835Z,-0.86
2017-02-12T00:47:01.852Z,-0.79
2017-02-12T00:48:01.844Z,-0.79
2017-02-12T00:49:01.874Z,-0.8
2017-02-12T00:50:01.871Z,-0.8
2017-02-12T00:51:01.898Z,-0.8
2017-02-12T00:52:01.908Z,-0.73
2017-02-12T00:53:01.935Z,-0.82
2017-02-12T00:54:01.943Z,-0.65
2017-02-12T00:55:01.940Z,-0.72
2017-02-12T00:56:01.953Z,-0.79
2017-02-12T00:57:01.960Z,-0.79
2017-02-12T00:58:01.985Z,-0.92
2017-02-12T00:59:01.983Z,-0.86
2017-02-12T01:00:02.016Z,-0.86
2017-02-12T01:01:02.009Z,-0.95
2017-02-12T01:02:02.048Z,-0.83
2017-02-12T01:03:02.042Z,-0.85
2017-02-12T01:04:02.067Z,-0.94
2017-02-12T01:06:02.086Z,-0.73
2017-02-12T01:07:02.108Z,-0.82
2017-02-12T01:08:02.101Z,-0.78
2017-02-12T01:09:02.115Z,-0.76
2017-02-12T01:10:16.654Z,-0.78
2017-02-12T01:12:16.683Z,-0.79
2017-02-12T01:13:02.165Z,-0.78
2017-02-12T01:14:02.191Z,-0.78
2017-02-12T01:16:02.207Z,-0.79
2017-02-12T01:18:02.241Z,-0.67
2017-02-12T01:19:02.254Z,-0.72
2017-02-12T01:20:02.286Z,-0.7
2017-02-12T01:21:02.266Z,-0.65
2017-02-12T01:22:02.294Z,-0.72
2017-02-12T01:23:02.304Z,-0.7
2017-02-12T01:24:02.311Z,-0.64
2017-02-12T01:25:02.327Z,-0.62
2017-02-12T01:26:16.848Z,-0.7
2017-02-12T01:27:02.361Z,-0.64
2017-02-12T01:28:01.974Z,-0.6
2017-02-12T01:29:02.368Z,-0.6
2017-02-12T01:30:02.395Z,-0.64
2017-02-12T01:31:02.408Z,-0.61
2017-02-12T01:32:02.438Z,-0.6
2017-02-12T01:33:02.427Z,-0.58
2017-02-12T01:34:16.968Z,-0.67
2017-02-12T01:35:02.441Z,-0.57
2017-02-12T01:36:02.479Z,-0.62
2017-02-12T01:37:02.475Z,-0.62
2017-02-12T01:39:02.498Z,-0.7
2017-02-12T01:40:02.504Z,-0.58
2017-02-12T01:41:02.510Z,-0.6
2017-02-12T01:42:16.661Z,-0.6
2017-02-12T01:44:02.570Z,-0.52
2017-02-12T01:46:02.594Z,-0.58
2017-02-12T01:47:02.586Z,-0.62
2017-02-12T01:49:02.631Z,-0.58
2017-02-12T01:50:02.657Z,-0.54
2017-02-12T01:51:02.654Z,-0.55
2017-02-12T01:52:02.648Z,-0.57
2017-02-12T01:53:02.676Z,-0.62
2017-02-12T01:54:02.686Z,-0.58
2017-02-12T01:56:02.724Z,-0.61
2017-02-12T01:57:02.717Z,-0.6
2017-02-12T01:58:17.253Z,-0.72
2017-02-12T01:59:02.757Z,-0.69
2017-02-12T02:00:02.759Z,-0.65
2017-02-12T02:01:17.295Z,-0.8
2017-02-12T02:02:02.784Z,-0.78
2017-02-12T02:03:02.810Z,-0.8
2017-02-12T02:04:02.812Z,-0.76
2017-02-12T02:06:02.832Z,-0.61
2017-02-12T02:07:02.862Z,-0.6
2017-02-12T02:09:02.878Z,-0.6
2017-02-12T02:10:02.895Z,-0.7
2017-02-12T02:11:02.914Z,-0.57
2017-02-12T02:12:17.425Z,-0.62
2017-02-12T02:13:17.447Z,-0.67
2017-02-12T02:14:02.952Z,-0.67
2017-02-12T02:15:17.462Z,-0.67
2017-02-12T02:16:17.490Z,-0.78
2017-02-12T02:17:02.981Z,-0.75
2017-02-12T02:18:03.007Z,-0.8
2017-02-12T02:19:03.000Z,-0.8
2017-02-12T02:20:17.532Z,-0.61
2017-02-12T02:21:03.038Z,-0.58
2017-02-12T02:22:17.559Z,-0.69
2017-02-12T02:23:02.672Z,-0.58
2017-02-12T02:24:03.058Z,-0.61
2017-02-12T02:25:03.092Z,-0.64
2017-02-12T02:26:03.085Z,-0.55
2017-02-12T02:27:03.129Z,-0.58
2017-02-12T02:28:03.131Z,-0.65
2017-02-12T02:29:03.133Z,-0.69
2017-02-12T02:30:03.156Z,-0.62
2017-02-12T02:31:03.152Z,-0.65
2017-02-12T02:32:03.167Z,-0.6
2017-02-12T02:33:03.175Z,-0.54
2017-02-12T02:34:03.202Z,-0.62
2017-02-12T02:35:03.217Z,-0.61
2017-02-12T02:36:03.210Z,-0.65
2017-02-12T02:37:03.226Z,-0.69
2017-02-12T02:38:03.251Z,-0.75
2017-02-12T02:39:03.267Z,-0.67
2017-02-12T02:40:03.281Z,-0.67
2017-02-12T02:41:03.278Z,-0.65
2017-02-12T02:42:03.301Z,-0.65
2017-02-12T02:43:03.308Z,-0.67
2017-02-12T02:44:03.329Z,-0.6
2017-02-12T02:45:17.846Z,-0.58
2017-02-12T02:46:02.970Z,-0.58
2017-02-12T02:47:03.362Z,-0.65
2017-02-12T02:48:03.374Z,-0.69
2017-02-12T02:49:17.902Z,-0.75
2017-02-12T02:50:03.389Z,-0.7
2017-02-12T02:51:03.417Z,-0.82
2017-02-12T02:52:17.940Z,-0.67
2017-02-12T02:53:03.451Z,-0.61
2017-02-12T02:54:03.458Z,-0.64
2017-02-12T02:55:03.463Z,-0.64
2017-02-12T02:56:03.466Z,-0.62
2017-02-12T02:57:03.472Z,-0.64
2017-02-12T02:58:03.508Z,-0.67
2017-02-12T02:59:03.122Z,-0.65
2017-02-12T03:00:03.530Z,-0.62
2017-02-12T03:01:18.052Z,-0.64
2017-02-12T03:03:18.082Z,-0.64
2017-02-12T03:04:03.583Z,-0.62
2017-02-12T03:05:03.579Z,-0.69
2017-02-12T03:07:03.609Z,-0.79
2017-02-12T03:08:03.627Z,-0.76
2017-02-12T03:09:03.680Z,-0.76
2017-02-12T03:10:18.165Z,-0.82
2017-02-12T03:12:03.671Z,-0.82
2017-02-12T03:14:03.690Z,-0.72
2017-02-12T03:15:03.720Z,-0.69
2017-02-12T03:16:03.727Z,-0.6
2017-02-12T03:17:18.259Z,-0.65
2017-02-12T03:18:03.748Z,-0.64
2017-02-12T03:19:03.774Z,-0.62
2017-02-12T03:20:03.771Z,-0.57
2017-02-12T03:21:03.787Z,-0.54
2017-02-12T03:23:03.812Z,-0.69
2017-02-12T03:24:18.340Z,-0.61
2017-02-12T03:25:03.830Z,-0.65
2017-02-12T03:26:03.853Z,-0.7
2017-02-12T03:27:03.858Z,-0.7
2017-02-12T03:29:03.881Z,-0.64
2017-02-12T03:30:03.925Z,-0.61
2017-02-12T03:31:03.906Z,-0.65
2017-02-12T03:33:18.462Z,-0.61
2017-02-12T03:34:03.953Z,-0.65
2017-02-12T03:35:03.957Z,-0.67
2017-02-12T03:36:03.970Z,-0.67
2017-02-12T03:37:04.000Z,-0.57
2017-02-12T03:38:03.989Z,-0.62
2017-02-12T03:39:04.023Z,-0.64
2017-02-12T03:40:18.543Z,-0.61
2017-02-12T03:41:04.044Z,-0.7
2017-02-12T03:42:04.054Z,-0.72
2017-02-12T03:43:04.063Z,-0.67
2017-02-12T03:44:04.074Z,-0.64
2017-02-12T03:45:04.091Z,-0.75
2017-02-12T03:46:04.113Z,-0.7
2017-02-12T03:47:04.103Z,-0.67
2017-02-12T03:48:18.645Z,-0.72
2017-02-12T03:49:04.141Z,-0.72
2017-02-12T03:50:18.681Z,-0.8
2017-02-12T03:51:04.161Z,-0.72
2017-02-12T03:52:18.703Z,-0.61
2017-02-12T03:53:04.204Z,-0.6
2017-02-12T03:54:04.200Z,-0.62
2017-02-12T03:55:04.220Z,-0.67
2017-02-12T03:56:04.240Z,-0.64
2017-02-12T03:57:18.756Z,-0.76
2017-02-12T03:58:04.270Z,-0.67
2017-02-12T03:59:18.784Z,-0.76
2017-02-12T04:00:04.277Z,-0.67
2017-02-12T04:01:04.288Z,-0.67
2017-02-12T04:02:04.316Z,-0.92
2017-02-12T04:03:04.330Z,-0.76
2017-02-12T04:04:18.842Z,-0.92
2017-02-12T04:05:04.352Z,-0.95
2017-02-12T04:06:04.349Z,-0.91
2017-02-12T04:07:18.893Z,-0.91
2017-02-12T04:08:04.386Z,-0.86
2017-02-12T04:09:04.405Z,-0.92
2017-02-12T04:10:04.423Z,-0.79
2017-02-12T04:11:04.421Z,-0.64
2017-02-12T04:12:18.949Z,-0.6
2017-02-12T04:14:04.071Z,-0.58
2017-02-12T04:15:04.474Z,-0.65
2017-02-12T04:16:04.504Z,-0.67
2017-02-12T04:17:04.503Z,-0.7
2017-02-12T04:18:04.512Z,-0.69
2017-02-12T04:19:04.507Z,-0.73
2017-02-12T04:20:19.051Z,-0.65
2017-02-12T04:21:04.549Z,-0.69
2017-02-12T04:22:04.554Z,-0.61
2017-02-12T04:24:04.580Z,-0.67
2017-02-12T04:25:04.933Z,-0.72
2017-02-12T04:27:04.632Z,-0.7
2017-02-12T04:28:04.630Z,-0.82
2017-02-12T04:29:04.645Z,-0.8
2017-02-12T04:30:04.658Z,-0.83
2017-02-12T04:31:04.674Z,-0.91
2017-02-12T04:32:04.690Z,-0.92
2017-02-12T04:34:04.720Z,-0.79
2017-02-12T04:36:19.262Z,-0.79
2017-02-12T04:37:04.743Z,-0.82
2017-02-12T04:38:04.764Z,-0.86
2017-02-12T04:40:04.798Z,-0.98
2017-02-12T04:41:04.813Z,-0.94
2017-02-12T04:42:04.804Z,-0.97
2017-02-12T04:43:04.828Z,-0.95
2017-02-12T04:44:04.822Z,-0.95
2017-02-12T04:45:19.365Z,-0.91
2017-02-12T04:46:04.866Z,-0.98
2017-02-12T04:47:04.873Z,-0.94
2017-02-12T04:48:04.903Z,-0.91
2017-02-12T04:49:04.887Z,-0.97
2017-02-12T04:50:04.924Z,-0.95
2017-02-12T04:51:04.917Z,-0.83
2017-02-12T04:52:19.444Z,-0.95
2017-02-12T04:53:04.956Z,-0.98
2017-02-12T04:54:05.002Z,-0.92
2017-02-12T04:55:04.968Z,-0.98
2017-02-12T04:56:19.507Z,-0.94
2017-02-12T04:57:04.996Z,-0.85
2017-02-12T04:58:05.010Z,-0.83
2017-02-12T04:59:05.024Z,-0.89
2017-02-12T05:00:05.050Z,-0.85
2017-02-12T05:01:05.082Z,-0.85
2017-02-12T05:02:04.678Z,-0.83
2017-02-12T05:03:05.061Z,-0.79
2017-02-12T05:04:05.099Z,-0.8
2017-02-12T05:05:05.098Z,-0.79
2017-02-12T05:06:05.101Z,-0.85
2017-02-12T05:07:05.130Z,-0.94
2017-02-12T05:08:19.658Z,-0.86
2017-02-12T05:09:05.150Z,-0.86
2017-02-12T05:10:19.685Z,-0.82
2017-02-12T05:11:05.162Z,-0.79
2017-02-12T05:12:05.179Z,-0.92
2017-02-12T05:13:05.186Z,-0.85
2017-02-12T05:14:05.220Z,-0.91
2017-02-12T05:15:05.224Z,-0.91
2017-02-12T05:17:19.761Z,-0.85
2017-02-12T05:18:05.259Z,-0.83
2017-02-12T05:19:05.263Z,-0.69
2017-02-12T05:20:05.287Z,-0.67
2017-02-12T05:21:05.294Z,-0.82
2017-02-12T05:22:05.317Z,-0.95
2017-02-12T05:23:19.839Z,-1.01
2017-02-12T05:24:05.337Z,-1.04
2017-02-12T05:25:04.962Z,-1.02
2017-02-12T05:26:05.369Z,-1.01
2017-02-12T05:27:05.385Z,-0.98
2017-02-12T05:28:05.376Z,-1.04
2017-02-12T05:29:05.415Z,-1.04
2017-02-12T05:30:05.020Z,-0.99
2017-02-12T05:31:05.426Z,-0.92
2017-02-12T05:33:05.456Z,-0.86
2017-02-12T05:34:05.463Z,-0.95
2017-02-12T05:36:05.494Z,-0.97
2017-02-12T05:37:05.492Z,-0.95
2017-02-12T05:38:05.520Z,-0.95
2017-02-12T05:39:20.033Z,-0.92
2017-02-12T05:40:05.549Z,-0.91
2017-02-12T05:41:05.546Z,-0.79
2017-02-12T05:42:05.563Z,-0.89
2017-02-12T05:43:05.585Z,-0.97
2017-02-12T05:44:05.586Z,-0.97
2017-02-12T05:45:05.593Z,-0.94
2017-02-12T05:46:05.658Z,-0.95
2017-02-12T05:47:05.617Z,-0.89
2017-02-12T05:49:05.660Z,-0.98
2017-02-12T05:50:05.672Z,-0.91
2017-02-12T05:51:05.667Z,-0.98
2017-02-12T05:52:05.675Z,-1.04
2017-02-12T05:53:05.699Z,-0.91
2017-02-12T05:54:05.708Z,-0.86
2017-02-12T05:55:20.238Z,-0.89
2017-02-12T05:56:05.727Z,-0.89
2017-02-12T05:57:05.361Z,-0.94
2017-02-12T05:58:05.748Z,-0.86
2017-02-12T05:59:05.778Z,-0.94
2017-02-12T06:00:05.002Z,-0.89
2017-02-12T06:01:05.813Z,-0.97
2017-02-12T06:02:20.328Z,-0.94
2017-02-12T06:03:05.817Z,-1.05
2017-02-12T06:04:05.840Z,-0.95
2017-02-12T06:05:05.836Z,-1.04
2017-02-12T06:06:05.864Z,-0.91
2017-02-12T06:07:05.472Z,-0.86
2017-02-12T06:08:05.894Z,-0.91
2017-02-12T06:09:05.892Z,-1.02
2017-02-12T06:10:05.917Z,-0.94
2017-02-12T06:12:05.950Z,-0.86
2017-02-12T06:13:05.934Z,-0.97
2017-02-12T06:14:20.481Z,-0.92
2017-02-12T06:15:05.191Z,-0.89
2017-02-12T06:16:05.987Z,-0.91
2017-02-12T06:17:05.997Z,-0.82
2017-02-12T06:18:06.025Z,-0.85
2017-02-12T06:19:06.039Z,-0.91
2017-02-12T06:20:06.030Z,-0.83
2017-02-12T06:21:06.058Z,-0.83
2017-02-12T06:22:06.055Z,-0.79
2017-02-12T06:23:06.081Z,-0.86
2017-02-12T06:24:06.078Z,-0.85
2017-02-12T06:25:06.109Z,-0.76
2017-02-12T06:26:06.118Z,-0.69
2017-02-12T06:27:20.631Z,-0.8
2017-02-12T06:28:20.662Z,-0.82
2017-02-12T06:29:06.152Z,-0.79
2017-02-12T06:30:06.157Z,-0.91
2017-02-12T06:31:06.180Z,-0.83
2017-02-12T06:32:06.200Z,-0.83
2017-02-12T06:33:06.214Z,-0.86
2017-02-12T06:34:06.215Z,-0.94
2017-02-12T06:35:20.741Z,-0.95
2017-02-12T06:36:06.232Z,-0.91
2017-02-12T06:37:06.254Z,-0.98
2017-02-12T06:38:06.553Z,-0.97
2017-02-12T06:39:06.286Z,-0.97
2017-02-12T06:40:06.292Z,-0.94
2017-02-12T06:41:06.304Z,-0.98
2017-02-12T06:42:06.321Z,-0.89
2017-02-12T06:43:20.850Z,-0.85
2017-02-12T06:44:06.342Z,-0.92
2017-02-12T06:45:06.352Z,-0.95
2017-02-12T06:46:06.398Z,-0.98
2017-02-12T06:47:06.376Z,-0.98
2017-02-12T06:48:20.904Z,-0.99
2017-02-12T06:49:06.413Z,-0.97
2017-02-12T06:51:06.416Z,-1.01
2017-02-12T06:52:06.447Z,-0.99
2017-02-12T06:53:06.433Z,-0.99
2017-02-12T06:54:06.468Z,-0.95
2017-02-12T06:55:06.463Z,-0.99
2017-02-12T06:56:06.496Z,-0.95
2017-02-12T06:57:06.502Z,-0.94
2017-02-12T06:58:21.031Z,-0.97
2017-02-12T07:00:06.522Z,-0.85
2017-02-12T07:01:06.564Z,-0.86
2017-02-12T07:02:06.559Z,-0.94
2017-02-12T07:03:06.580Z,-1.01
2017-02-12T07:04:06.600Z,-0.97
2017-02-12T07:05:06.659Z,-0.98
2017-02-12T07:06:06.612Z,-0.92
2017-02-12T07:07:06.672Z,-0.92
2017-02-12T07:08:06.638Z,-0.86
2017-02-12T07:09:06.659Z,-0.92
2017-02-12T07:10:06.663Z,-0.86
2017-02-12T07:11:06.285Z,-0.89
2017-02-12T07:12:06.685Z,-0.85
2017-02-12T07:13:06.715Z,-0.89
2017-02-12T07:14:06.330Z,-0.97
2017-02-12T07:15:06.723Z,-0.99
2017-02-12T07:16:06.758Z,-1.15
2017-02-12T07:17:06.743Z,-1.1
2017-02-12T07:18:06.780Z,-0.98
2017-02-12T07:19:06.780Z,-1.02
2017-02-12T07:20:06.799Z,-0.98
2017-02-12T07:21:06.804Z,-0.99
2017-02-12T07:22:06.823Z,-0.97
2017-02-12T07:23:06.820Z,-1.02
2017-02-12T07:24:06.830Z,-1.15
2017-02-12T07:25:06.844Z,-1.04
2017-02-12T07:26:06.869Z,-0.98
2017-02-12T07:28:06.879Z,-0.94
2017-02-12T07:29:06.912Z,-0.94
2017-02-12T07:30:21.427Z,-1.01
2017-02-12T07:31:06.919Z,-0.95
2017-02-12T07:32:06.937Z,-0.85
2017-02-12T07:33:06.957Z,-0.89
2017-02-12T07:34:06.948Z,-0.8
2017-02-12T07:35:06.984Z,-0.82
2017-02-12T07:36:06.975Z,-0.82
2017-02-12T07:37:07.007Z,-0.72
2017-02-12T07:38:06.997Z,-0.76
2017-02-12T07:39:07.039Z,-0.79
2017-02-12T07:40:07.037Z,-0.85
2017-02-12T07:41:07.037Z,-0.82
2017-02-12T07:42:07.075Z,-0.79
2017-02-12T07:43:07.076Z,-0.76
2017-02-12T07:44:07.089Z,-0.76
2017-02-12T07:45:21.607Z,-0.83
2017-02-12T07:46:21.635Z,-0.95
2017-02-12T07:47:07.123Z,-0.91
2017-02-12T07:48:07.139Z,-0.83
2017-02-12T07:49:07.144Z,-0.83
2017-02-12T07:51:07.186Z,-0.7
2017-02-12T07:52:07.188Z,-0.62
2017-02-12T07:53:07.209Z,-0.78
2017-02-12T07:54:07.197Z,-0.82
2017-02-12T07:55:07.217Z,-0.85
2017-02-12T07:56:07.228Z,-0.86
2017-02-12T07:57:07.260Z,-0.95
2017-02-12T07:58:07.277Z,-0.91
2017-02-12T07:59:07.281Z,-0.78
2017-02-12T08:00:06.893Z,-0.72
2017-02-12T08:01:07.308Z,-0.73
2017-02-12T08:02:21.826Z,-0.8
2017-02-12T08:03:07.330Z,-0.8
2017-02-12T08:04:07.330Z,-0.75
2017-02-12T08:05:07.348Z,-0.94
2017-02-12T08:06:07.357Z,-0.8
2017-02-12T08:07:07.391Z,-0.82
2017-02-12T08:08:07.398Z,-0.69
2017-02-12T08:09:07.407Z,-0.69
2017-02-12T08:10:07.429Z,-0.67
2017-02-12T08:11:07.420Z,-0.67
2017-02-12T08:12:07.593Z,-0.64
2017-02-12T08:13:07.437Z,-0.62
2017-02-12T08:14:07.465Z,-0.69
2017-02-12T08:15:07.485Z,-0.72
2017-02-12T08:16:22.000Z,-0.67
2017-02-12T08:17:07.500Z,-0.64
2017-02-12T08:18:22.037Z,-0.72
2017-02-12T08:19:07.523Z,-0.7
2017-02-12T08:20:07.540Z,-0.78
2017-02-12T08:21:07.158Z,-0.64
2017-02-12T08:22:22.089Z,-0.67
2017-02-12T08:23:07.578Z,-0.64
2017-02-12T08:24:07.608Z,-0.58
2017-02-12T08:25:07.593Z,-0.62
2017-02-12T08:26:07.654Z,-0.6
2017-02-12T08:27:22.142Z,-0.65
2017-02-12T08:28:07.246Z,-0.6
2017-02-12T08:29:07.647Z,-0.62
2017-02-12T08:30:07.677Z,-0.6
2017-02-12T08:31:07.682Z,-0.51
2017-02-12T08:32:07.696Z,-0.52
2017-02-12T08:33:22.213Z,-0.52
2017-02-12T08:34:07.730Z,-0.43
2017-02-12T08:35:22.236Z,-0.54
2017-02-12T08:36:07.737Z,-0.42
2017-02-12T08:37:07.763Z,-0.44
2017-02-12T08:38:07.779Z,-0.36
2017-02-12T08:39:07.799Z,-0.34
2017-02-12T08:40:07.394Z,-0.31
2017-02-12T08:41:22.327Z,-0.33
2017-02-12T08:42:07.828Z,-0.25
2017-02-12T08:43:07.841Z,-0.19
2017-02-12T08:44:07.459Z,-0.14
2017-02-12T08:45:07.849Z,-0.08
2017-02-12T08:47:07.495Z,-0.07
2017-02-12T08:48:07.908Z,-0.15
2017-02-12T08:49:07.911Z,-0.14
2017-02-12T08:50:07.519Z,-0.25
2017-02-12T08:51:07.941Z,-0.19
2017-02-12T08:52:07.944Z,-0.34
2017-02-12T08:53:07.955Z,-0.36
2017-02-12T08:54:07.977Z,-0.39
2017-02-12T08:55:07.997Z,-0.36
2017-02-12T08:56:08.003Z,-0.33
2017-02-12T08:57:08.018Z,-0.29
2017-02-12T08:58:08.021Z,-0.28
2017-02-12T08:59:08.058Z,-0.36
2017-02-12T09:02:08.073Z,-0.21
2017-02-12T09:03:08.087Z,-0.16
2017-02-12T09:04:08.115Z,-0.19
2017-02-12T09:05:22.630Z,-0.11
2017-02-12T09:06:08.134Z,-0.16
2017-02-12T09:08:08.168Z,-0.07
2017-02-12T09:09:08.164Z,-0.16
2017-02-12T09:10:08.181Z,-0.25
2017-02-12T09:11:08.198Z,-0.18
2017-02-12T09:12:07.817Z,-0.04
2017-02-12T09:13:08.240Z,-0.21
2017-02-12T09:14:08.235Z,-0.08
2017-02-12T09:15:08.258Z,-0.08
2017-02-12T09:16:08.257Z,-0.01
2017-02-12T09:18:08.301Z,0.18
2017-02-12T09:19:08.305Z,0.13
2017-02-12T09:20:07.928Z,-0.03
2017-02-12T09:21:22.839Z,0.15
2017-02-12T09:22:08.360Z,0.07
2017-02-12T09:23:08.357Z,0.03
2017-02-12T09:24:08.378Z,0.03
2017-02-12T09:25:07.991Z,-0.05
2017-02-12T09:26:08.374Z,0.18
2017-02-12T09:27:08.403Z,0.14
2017-02-12T09:28:08.419Z,0.13
2017-02-12T09:29:08.447Z,0.07
2017-02-12T09:30:08.453Z,0
2017-02-12T09:31:08.500Z,0.1
2017-02-12T09:32:08.472Z,0.13
2017-02-12T09:33:08.469Z,0.17
2017-02-12T09:34:08.513Z,0.28
2017-02-12T09:35:08.504Z,0.33
2017-02-12T09:36:08.538Z,0.46
2017-02-12T09:37:23.055Z,0.53
2017-02-12T09:40:08.566Z,0.69
2017-02-12T09:41:08.197Z,0.62
2017-02-12T09:42:08.606Z,0.5
2017-02-12T09:43:08.623Z,0.47
2017-02-12T09:44:08.632Z,0.68
2017-02-12T09:45:08.652Z,0.44
2017-02-12T09:46:08.644Z,0.5
2017-02-12T09:47:08.668Z,0.46
2017-02-12T09:48:08.986Z,0.41
2017-02-12T09:49:08.692Z,0.42
2017-02-12T09:50:08.714Z,0.53
2017-02-12T09:51:08.736Z,0.47
2017-02-12T09:52:23.250Z,0.58
2017-02-12T09:53:23.277Z,0.68
2017-02-12T09:54:08.779Z,0.6
2017-02-12T09:55:08.780Z,0.47
2017-02-12T09:56:08.799Z,0.46
2017-02-12T09:57:08.799Z,0.38
2017-02-12T09:58:23.341Z,0.47
2017-02-12T10:00:08.472Z,0.69
2017-02-12T10:01:08.871Z,0.5
2017-02-12T10:02:08.879Z,0.55
2017-02-12T10:03:08.881Z,0.51
2017-02-12T10:04:08.511Z,0.41
2017-02-12T10:05:08.921Z,0.38
2017-02-12T10:06:08.963Z,0.36
2017-02-12T10:07:08.957Z,0.5
2017-02-12T10:08:23.467Z,0.61
2017-02-12T10:09:08.988Z,0.65
2017-02-12T10:10:08.976Z,0.62
2017-02-12T10:11:08.995Z,0.61
2017-02-12T10:12:08.620Z,0.53
2017-02-12T10:13:09.037Z,0.57
2017-02-12T10:14:09.047Z,0.44
2017-02-12T10:15:09.064Z,0.47
2017-02-12T10:16:08.668Z,0.5
2017-02-12T10:17:23.645Z,0.6
2017-02-12T10:18:09.092Z,0.51
2017-02-12T10:19:09.113Z,0.33
2017-02-12T10:20:09.118Z,0.41
2017-02-12T10:21:09.140Z,0.5
2017-02-12T10:22:08.746Z,0.61
2017-02-12T10:23:09.175Z,0.78
2017-02-12T10:25:09.175Z,0.76
2017-02-12T10:26:09.212Z,0.5
2017-02-12T10:27:09.212Z,0.62
2017-02-12T10:28:09.234Z,0.65
2017-02-12T10:29:09.238Z,0.57
2017-02-12T10:30:09.261Z,0.5
2017-02-12T10:31:09.262Z,0.69
2017-02-12T10:33:09.298Z,0.8
2017-02-12T10:34:09.329Z,0.84
2017-02-12T10:35:09.532Z,0.83
2017-02-12T10:36:09.345Z,0.69
2017-02-12T10:37:09.349Z,0.78
2017-02-12T10:38:08.981Z,0.75
2017-02-12T10:39:09.369Z,0.72
2017-02-12T10:40:23.918Z,0.76
2017-02-12T10:41:09.418Z,0.69
2017-02-12T10:42:09.424Z,0.76
2017-02-12T10:43:09.449Z,0.87
2017-02-12T10:44:09.453Z,0.86
2017-02-12T10:45:23.985Z,0.83
2017-02-12T10:46:09.465Z,0.83
2017-02-12T10:47:09.491Z,0.83
2017-02-12T10:48:09.498Z,0.83
2017-02-12T10:49:09.529Z,0.8
2017-02-12T10:50:09.518Z,0.76
2017-02-12T10:51:09.558Z,0.84
2017-02-12T10:52:09.562Z,0.9
2017-02-12T10:53:09.593Z,0.87
2017-02-12T10:54:09.594Z,0.75
2017-02-12T10:55:09.599Z,0.8
2017-02-12T10:56:24.135Z,0.79
2017-02-12T10:57:09.638Z,0.6
2017-02-12T10:58:09.261Z,0.49
2017-02-12T10:59:09.644Z,0.5
2017-02-12T11:00:09.679Z,0.53
2017-02-12T11:01:09.679Z,0.68
2017-02-12T11:02:09.321Z,0.75
2017-02-12T11:03:09.718Z,0.68
2017-02-12T11:04:09.745Z,0.84
2017-02-12T11:05:09.746Z,0.88
2017-02-12T11:06:09.765Z,1.04
2017-02-12T11:07:09.767Z,1.08
2017-02-12T11:08:09.785Z,1.11
2017-02-12T11:09:09.798Z,1.14
2017-02-12T11:10:09.429Z,1.06
2017-02-12T11:11:09.831Z,1.18
2017-02-12T11:12:24.363Z,1.09
2017-02-12T11:13:09.476Z,1
2017-02-12T11:14:09.878Z,1.12
2017-02-12T11:15:24.401Z,1.09
2017-02-12T11:16:09.898Z,1.08
2017-02-12T11:17:09.903Z,1.14
2017-02-12T11:18:09.918Z,1.2
2017-02-12T11:19:09.948Z,1.16
2017-02-12T11:20:24.475Z,1.36
2017-02-12T11:21:10.024Z,1.36
2017-02-12T11:22:09.970Z,1.3
2017-02-12T11:23:09.617Z,1.24
2017-02-12T11:24:09.606Z,1.22
2017-02-12T11:25:09.621Z,1.29
2017-02-12T11:26:10.034Z,1.14
2017-02-12T11:27:10.059Z,1.18
2017-02-12T11:28:24.586Z,1.15
2017-02-12T11:29:24.586Z,1.12
2017-02-12T11:30:09.710Z,1.02
2017-02-12T11:31:10.094Z,1.16
2017-02-12T11:32:10.115Z,1.14
2017-02-12T11:33:09.754Z,1.12
2017-02-12T11:34:10.152Z,1.05
2017-02-12T11:35:09.781Z,1.16
2017-02-12T11:36:10.162Z,1.14
2017-02-12T11:37:09.812Z,1.15
2017-02-12T11:38:10.196Z,1.12
2017-02-12T11:40:10.242Z,1.11
2017-02-12T11:41:10.258Z,1.06
2017-02-12T11:42:09.878Z,1.12
2017-02-12T11:44:10.295Z,1.09
2017-02-12T11:45:10.313Z,1.16
2017-02-12T11:46:10.320Z,1.06
2017-02-12T11:48:10.351Z,1.12
2017-02-12T11:49:09.969Z,1.12
2017-02-12T11:51:10.380Z,1.04
2017-02-12T11:52:10.028Z,1.16
2017-02-12T11:53:10.424Z,1.22
2017-02-12T11:54:10.037Z,1.26
2017-02-12T11:55:10.461Z,1.16
2017-02-12T11:56:10.460Z,1.4
2017-02-12T11:57:10.504Z,1.42
2017-02-12T11:58:10.502Z,1.47
2017-02-12T11:59:10.155Z,1.33
2017-02-12T12:00:10.524Z,1.34
2017-02-12T12:01:10.159Z,1.2
2017-02-12T12:02:10.540Z,1.27
2017-02-12T12:03:10.582Z,1.41
2017-02-12T12:04:25.097Z,1.34
2017-02-12T12:05:10.620Z,1.36
2017-02-12T12:06:10.593Z,1.48
2017-02-12T12:07:25.139Z,1.48
2017-02-12T12:08:10.643Z,1.44
2017-02-12T12:09:10.666Z,1.5
2017-02-12T12:10:10.268Z,1.33
2017-02-12T12:11:10.695Z,1.3
2017-02-12T12:12:10.696Z,1.34
2017-02-12T12:14:10.733Z,1.41
2017-02-12T12:16:10.768Z,1.6
2017-02-12T12:17:10.775Z,1.54
2017-02-12T12:18:10.788Z,1.45
2017-02-12T12:19:10.811Z,1.4
2017-02-12T12:20:10.426Z,1.29
2017-02-12T12:21:10.495Z,1.14
2017-02-12T12:22:10.839Z,1.09
2017-02-12T12:23:10.470Z,1.09
2017-02-12T12:24:10.482Z,1.09
2017-02-12T12:25:10.880Z,1.11
2017-02-12T12:26:10.909Z,1.09
2017-02-12T12:27:10.534Z,1.18
2017-02-12T12:28:10.939Z,1.11
2017-02-12T12:29:10.567Z,1.27
2017-02-12T12:30:10.956Z,1.33
2017-02-12T12:31:25.482Z,1.58
2017-02-12T12:33:11.021Z,1.55
2017-02-12T12:34:11.056Z,1.37
2017-02-12T12:35:11.029Z,1.37
2017-02-12T12:36:10.653Z,1.41
2017-02-12T12:37:11.072Z,1.58
2017-02-12T12:38:11.054Z,1.45
2017-02-12T12:39:10.708Z,1.42
2017-02-12T12:40:25.611Z,1.33
2017-02-12T12:41:10.746Z,1.32
2017-02-12T12:42:10.721Z,1.4
2017-02-12T12:43:11.178Z,1.29
2017-02-12T12:44:10.768Z,1.08
2017-02-12T12:45:11.171Z,1.3
2017-02-12T12:46:11.173Z,1.34
2017-02-12T12:47:25.716Z,1.34
2017-02-12T12:48:11.225Z,1.33
2017-02-12T12:49:11.238Z,1.36
2017-02-12T12:50:25.764Z,1.41
2017-02-12T12:51:11.281Z,1.36
2017-02-12T12:52:10.882Z,1.36
2017-02-12T12:53:11.286Z,1.33
2017-02-12T12:54:10.906Z,1.41
2017-02-12T12:55:11.341Z,1.33
2017-02-12T12:56:11.333Z,1.51
2017-02-12T12:57:11.374Z,1.44
2017-02-12T12:58:10.957Z,1.47
2017-02-12T12:59:11.406Z,1.58
2017-02-12T13:00:11.395Z,1.45
2017-02-12T13:01:11.394Z,1.32
2017-02-12T13:02:11.422Z,1.23
2017-02-12T13:03:25.946Z,1.24
2017-02-12T13:04:10.659Z,1.08
2017-02-12T13:06:11.475Z,1.06
2017-02-12T13:07:11.487Z,1.18
2017-02-12T13:08:11.503Z,1.11
2017-02-12T13:09:11.567Z,1.16
2017-02-12T13:10:11.531Z,1.26
2017-02-12T13:11:11.558Z,1.3
2017-02-12T13:12:26.074Z,1.36
2017-02-12T13:13:11.590Z,1.16
2017-02-12T13:14:11.606Z,1.36
2017-02-12T13:15:11.602Z,1.44
2017-02-12T13:16:11.627Z,1.33
2017-02-12T13:17:11.646Z,1.3
2017-02-12T13:18:26.162Z,1.15
2017-02-12T13:19:11.665Z,1.09
2017-02-12T13:20:11.294Z,1.16
2017-02-12T13:21:11.705Z,1.26
2017-02-12T13:22:11.757Z,1.37
2017-02-12T13:23:11.734Z,1.32
2017-02-12T13:24:11.724Z,1.15
2017-02-12T13:25:11.733Z,1.14
2017-02-12T13:26:11.754Z,1.04
2017-02-12T13:27:11.800Z,1.05
2017-02-12T13:28:11.782Z,1.18
2017-02-12T13:29:11.829Z,1.15
2017-02-12T13:30:11.804Z,1.12
2017-02-12T13:31:11.875Z,1.32
2017-02-12T13:32:11.450Z,1.37
2017-02-12T13:33:11.895Z,1.42
2017-02-12T13:34:11.489Z,1.58
2017-02-12T13:35:26.399Z,1.48
2017-02-12T13:36:11.918Z,1.5
2017-02-12T13:37:11.948Z,1.41
2017-02-12T13:38:11.936Z,1.45
2017-02-12T13:39:11.561Z,1.42
2017-02-12T13:40:11.971Z,1.42
2017-02-12T13:41:26.493Z,1.51
2017-02-12T13:42:11.991Z,1.52
2017-02-12T13:43:11.606Z,1.12
2017-02-12T13:44:12.030Z,1.22
2017-02-12T13:45:12.056Z,1.23
2017-02-12T13:46:11.651Z,1.08
2017-02-12T13:47:12.096Z,1.04
2017-02-12T13:48:11.685Z,1.18
2017-02-12T13:49:12.123Z,1.23
2017-02-12T13:50:26.615Z,1.15
2017-02-12T13:51:12.149Z,1.34
2017-02-12T13:52:12.134Z,1.44
2017-02-12T13:53:12.173Z,1.33
2017-02-12T13:54:12.154Z,1.34
2017-02-12T13:56:11.793Z,1.22